Time;durP1;ratioP1;P1;durP2;ratioP2;P2;SDS_P1;SDS_P2;PMS_P1;PMS_P2;Temp;Humidity;BMP_temperature;BMP_pressure;BME280_temperature;BME280_humidity;BME280_pressure;Samples;Min_cycle;Max_cycle;Signal;HPM_P1;HPM_P2
2023/10/03 08:23:04;;;;;;;5.63;2.95;;;;;;;;;;5033245;27;20440;-84
2023/10/03 08:25:34;;;;;;;5.78;2.63;;;;;;;;;;5004025;28;317558;-83
2023/10/03 08:28:20;;;;;;;8.00;2.97;;;;;;;;;;5027975;27;309539;-84
2023/10/03 08:30:50;;;;;;;5.25;2.70;;;;;;;;;;5064367;28;20056;-84
2023/10/03 08:33:17;;;;;;;6.30;3.00;;;;;;;;;;5050498;28;20048;-84
2023/10/03 08:35:46;;;;;;;8.15;2.97;;;;;;;;;;5051403;28;20048;-85
2023/10/03 08:38:13;;;;;;;8.02;2.90;;;;;;;;;;5057610;27;20045;-83
2023/10/03 08:40:42;;;;;;;5.72;2.88;;;;;;;;;;5054265;27;20403;-85
2023/10/03 08:43:10;;;;;;;5.07;2.72;;;;;;;;;;5017175;27;20079;-86
2023/10/03 08:45:41;;;;;;;6.82;2.75;;;;;;;;;;5035482;27;20053;-85
2023/10/03 08:48:09;;;;;;;10.75;2.90;;;;;;;;;;5042939;28;20049;-87
2023/10/03 08:50:40;;;;;;;9.05;3.30;;;;;;;;;;5058978;28;20045;-86
2023/10/03 08:53:13;;;;;;;4.95;2.78;;;;;;;;;;5050571;28;20052;-90
2023/10/03 08:55:43;;;;;;;8.13;3.08;;;;;;;;;;5059298;28;20040;-86
2023/10/03 08:58:13;;;;;;;4.93;2.42;;;;;;;;;;5046472;28;20084;-84
2023/10/03 09:00:44;;;;;;;6.88;3.03;;;;;;;;;;5051395;28;20041;-84
2023/10/03 09:03:14;;;;;;;6.53;3.15;;;;;;;;;;5043375;27;20052;-85
2023/10/03 09:05:41;;;;;;;8.38;3.13;;;;;;;;;;5058143;28;20184;-84
2023/10/03 09:08:08;;;;;;;6.88;3.15;;;;;;;;;;5059216;28;20040;-85
2023/10/03 09:13:06;;;;;;;7.72;3.35;;;;;;;22.38;52.79;100356.25;5054851;27;831555;-88
2023/10/03 09:15:37;;;;;;;5.15;2.60;;;;;;;22.53;52.75;100365.06;5065645;28;20047;-86
2023/10/03 09:20:42;;;;;;;6.88;3.20;;;;;;;22.90;52.14;100359.94;5034398;27;456312;-85
2023/10/03 09:23:09;;;;;;;5.88;2.80;;;;;;;23.16;51.18;100351.97;5029968;28;20048;-93
2023/10/03 09:25:41;;;;;;;6.22;3.20;;;;;;;23.33;51.13;100356.13;5050057;28;20040;-86
2023/10/03 09:28:12;;;;;;;8.05;3.95;;;;;;;23.26;51.44;100369.09;5032353;28;20511;-88
2023/10/03 09:30:38;;;;;;;7.40;3.35;;;;;;;23.03;51.27;100357.28;5038448;28;20075;-86
2023/10/03 09:33:08;;;;;;;8.70;3.28;;;;;;;23.12;51.06;100353.13;5028555;28;20055;-94
2023/10/03 09:35:39;;;;;;;6.78;3.05;;;;;;;23.29;51.60;100365.34;5045039;28;20101;-85
2023/10/03 09:38:17;;;;;;;5.97;3.35;;;;;;;23.08;51.40;100359.63;5042854;28;20126;-92
2023/10/03 09:40:49;;;;;;;4.93;3.03;;;;;;;23.22;51.12;100372.94;5007003;28;20132;-85
2023/10/03 09:43:19;;;;;;;5.65;3.28;;;;;;;23.48;51.09;100378.31;5026555;28;20044;-85
2023/10/03 09:45:55;;;;;;;5.90;3.25;;;;;;;23.58;50.79;100379.38;5039258;28;20045;-86
2023/10/03 09:48:26;;;;;;;5.05;2.67;;;;;;;23.70;50.60;100376.78;5040416;28;20046;-86
2023/10/03 09:51:05;;;;;;;6.30;3.25;;;;;;;23.94;50.03;100374.19;5048310;28;20048;-86
2023/10/03 09:53:32;;;;;;;5.68;3.03;;;;;;;23.69;49.50;100377.75;5049146;28;20056;-85
2023/10/03 09:56:00;;;;;;;5.15;2.80;;;;;;;23.85;49.96;100372.16;5046398;28;20041;-86
2023/10/03 09:58:33;;;;;;;6.93;3.25;;;;;;;24.00;49.43;100386.28;5030095;28;21105;-84
2023/10/03 10:01:00;;;;;;;5.10;2.50;;;;;;;23.78;49.42;100383.31;5032563;28;20051;-85
2023/10/03 10:03:36;;;;;;;6.25;3.10;;;;;;;23.92;49.26;100374.28;5012835;28;20414;-85
2023/10/03 10:06:19;;;;;;;5.57;2.95;;;;;;;24.02;48.77;100384.38;5009005;28;20037;-86
2023/10/03 10:08:58;;;;;;;4.30;2.35;;;;;;;24.30;48.64;100400.16;5040157;28;20042;-94
2023/10/03 10:11:30;;;;;;;4.88;2.92;;;;;;;24.04;48.64;100382.41;5033099;28;20246;-89
2023/10/03 10:14:08;;;;;;;5.40;2.78;;;;;;;24.23;48.73;100385.50;5028124;28;20200;-90
2023/10/03 10:17:04;;;;;;;5.65;2.75;;;;;;;24.11;48.62;100394.41;5026747;28;20051;-86
2023/10/03 10:20:09;;;;;;;5.10;3.00;;;;;;;23.99;49.08;100390.81;5029766;28;20072;-84
2023/10/03 10:23:01;;;;;;;6.43;3.17;;;;;;;24.41;48.11;100390.47;5036963;28;20087;-87
2023/10/03 10:25:28;;;;;;;4.63;2.55;;;;;;;23.86;48.74;100396.19;5036029;28;20063;-87
2023/10/03 10:28:05;;;;;;;5.10;2.45;;;;;;;24.22;49.00;100399.84;5032463;28;20065;-86
2023/10/03 10:30:36;;;;;;;5.90;2.95;;;;;;;23.97;48.83;100400.78;5024247;28;20048;-85
2023/10/03 10:33:18;;;;;;;6.15;3.33;;;;;;;23.89;49.17;100401.31;5034014;28;20045;-86
2023/10/03 10:35:54;;;;;;;4.68;2.83;;;;;;;24.03;48.61;100402.13;5011278;28;20056;-86
2023/10/03 10:38:41;;;;;;;4.55;3.03;;;;;;;23.72;48.88;100398.97;5027395;28;20045;-85
2023/10/03 10:41:11;;;;;;;5.82;2.75;;;;;;;23.76;49.39;100395.94;5011320;28;20489;-87
2023/10/03 10:44:16;;;;;;;6.55;2.67;;;;;;;24.31;48.51;100398.31;5019395;28;20049;-90
2023/10/03 10:46:47;;;;;;;3.60;2.20;;;;;;;23.53;49.34;100392.22;5009924;28;20129;-85
2023/10/03 10:49:40;;;;;;;7.20;2.75;;;;;;;23.67;49.44;100396.59;5035156;28;20412;-85
2023/10/03 10:52:09;;;;;;;7.13;2.28;;;;;;;23.62;48.64;100401.41;5006229;28;20044;-93
2023/10/03 10:54:41;;;;;;;5.85;2.10;;;;;;;23.86;48.86;100396.19;5007997;28;20119;-85
2023/10/03 10:57:10;;;;;;;3.90;2.20;;;;;;;23.59;49.65;100415.91;5024572;28;20047;-88
2023/10/03 10:59:41;;;;;;;4.32;2.35;;;;;;;23.85;50.28;100413.19;5041544;28;20499;-85
2023/10/03 11:02:37;;;;;;;4.75;2.30;;;;;;;23.58;49.51;100414.19;5028668;28;20068;-87
2023/10/03 11:05:08;;;;;;;11.25;2.60;;;;;;;23.35;50.09;100406.91;4969911;28;20100;-95
2023/10/03 11:07:39;;;;;;;4.90;2.40;;;;;;;23.46;49.77;100401.63;5037381;28;20048;-85
2023/10/03 11:10:09;;;;;;;4.07;2.40;;;;;;;23.53;49.95;100410.97;5035980;28;20037;-95
2023/10/03 11:13:03;;;;;;;4.45;2.25;;;;;;;23.58;49.66;100402.63;5024733;28;20049;-87
2023/10/03 11:15:31;;;;;;;2.88;1.90;;;;;;;23.94;49.99;100409.91;5025788;28;20052;-86
2023/10/03 11:17:58;;;;;;;3.95;2.10;;;;;;;23.71;49.84;100403.47;4999451;28;20045;-87
2023/10/03 11:20:26;;;;;;;4.22;2.15;;;;;;;23.58;49.92;100414.19;5013639;28;20057;-87
2023/10/03 11:22:54;;;;;;;9.25;3.67;;;;;;;23.40;50.64;100410.97;4992631;28;20052;-86
2023/10/03 11:25:21;;;;;;;4.55;2.17;;;;;;;23.34;50.67;100406.03;4997243;28;20117;-86
2023/10/03 11:27:50;;;;;;;6.00;2.97;;;;;;;23.39;50.83;100408.38;4999067;28;20156;-85
2023/10/03 11:30:22;;;;;;;4.05;2.60;;;;;;;23.45;50.21;100402.63;4988210;28;20040;-86
2023/10/03 11:32:49;;;;;;;4.80;2.15;;;;;;;23.48;50.93;100406.88;4997497;28;20057;-84
2023/10/03 11:35:20;;;;;;;3.78;2.30;;;;;;;23.78;50.34;100403.88;4997488;28;20042;-84
2023/10/03 11:37:51;;;;;;;6.43;2.53;;;;;;;23.72;50.45;100404.31;5006220;28;20050;-86
2023/10/03 11:40:20;;;;;;;8.15;2.80;;;;;;;23.42;50.62;100397.50;5003583;28;20038;-85
2023/10/03 11:42:50;;;;;;;5.60;2.75;;;;;;;23.47;50.96;100395.31;5020984;28;20049;-85
2023/10/03 11:45:23;;;;;;;4.68;2.60;;;;;;;23.98;49.11;100385.56;5014686;28;20041;-86
2023/10/03 11:48:06;;;;;;;4.38;2.75;;;;;;;24.10;49.50;100390.00;5020792;28;20065;-85
2023/10/03 11:50:34;;;;;;;7.05;3.00;;;;;;;23.86;49.67;100382.78;5003741;28;20117;-85
2023/10/03 11:53:02;;;;;;;6.68;2.55;;;;;;;24.21;49.71;100387.41;5016852;28;20124;-84
2023/10/03 11:55:31;;;;;;;5.95;2.33;;;;;;;24.40;48.69;100381.53;4995241;28;20064;-84
2023/10/03 11:58:08;;;;;;;4.88;2.53;;;;;;;24.45;48.91;100365.13;5011781;28;20125;-85
2023/10/03 12:00:36;;;;;;;6.05;2.65;;;;;;;24.07;49.57;100382.19;5013723;28;20053;-87
2023/10/03 12:03:04;;;;;;;4.38;2.53;;;;;;;23.81;50.36;100376.88;5013951;28;20041;-85
2023/10/03 12:05:31;;;;;;;6.95;2.50;;;;;;;23.87;49.84;100373.78;4982587;28;20052;-85
2023/10/03 12:07:58;;;;;;;3.60;2.15;;;;;;;24.00;49.74;100371.09;5006783;28;20041;-84
2023/10/03 12:10:26;;;;;;;4.65;2.05;;;;;;;23.86;50.14;100373.88;5015669;28;20450;-84
2023/10/03 12:12:54;;;;;;;5.55;2.35;;;;;;;23.91;49.34;100364.56;5021988;28;20049;-84
2023/10/03 12:15:23;;;;;;;3.72;2.10;;;;;;;23.99;49.00;100352.44;5005190;28;20049;-85
2023/10/03 12:17:51;;;;;;;5.95;1.88;;;;;;;24.10;48.49;100355.16;5000373;28;20139;-86
2023/10/03 12:20:20;;;;;;;5.00;1.95;;;;;;;24.75;47.54;100342.34;5005763;28;20048;-86
2023/10/03 12:22:50;;;;;;;4.53;2.15;;;;;;;24.96;46.52;100343.38;5018408;28;20538;-84
2023/10/03 12:25:20;;;;;;;4.82;1.85;;;;;;;24.65;46.90;100340.38;4993901;28;20048;-88
2023/10/03 12:27:47;;;;;;;5.57;1.80;;;;;;;24.64;46.88;100343.16;5018798;28;20056;-86
2023/10/03 12:30:15;;;;;;;4.82;1.67;;;;;;;24.35;47.11;100342.66;4994183;28;20045;-85
2023/10/03 12:32:46;;;;;;;5.38;1.90;;;;;;;24.48;47.80;100335.41;5013533;28;20052;-87
2023/10/03 12:35:14;;;;;;;3.67;1.80;;;;;;;24.57;47.37;100336.53;5010802;28;20061;-85
2023/10/03 12:37:47;;;;;;;4.25;1.90;;;;;;;24.31;47.03;100337.50;5019001;28;20111;-85
2023/10/03 12:40:16;;;;;;;4.20;1.80;;;;;;;24.16;47.87;100322.56;4998050;28;20056;-85
2023/10/03 12:42:47;;;;;;;2.95;1.90;;;;;;;24.11;47.82;100327.41;5004952;28;20048;-85
2023/10/03 12:45:16;;;;;;;5.57;2.00;;;;;;;23.95;47.56;100341.91;5010208;28;20061;-85
2023/10/03 12:47:54;;;;;;;4.20;1.80;;;;;;;23.67;48.47;100358.25;5021120;28;20045;-85
2023/10/03 12:50:25;;;;;;;4.30;1.70;;;;;;;23.49;48.78;100355.94;4998605;28;20052;-86
2023/10/03 12:52:58;;;;;;;3.22;1.70;;;;;;;23.59;48.67;100361.47;5003435;28;20046;-87
2023/10/03 12:55:26;;;;;;;4.57;1.63;;;;;;;23.51;48.90;100343.28;4998096;28;20057;-85
2023/10/03 12:57:56;;;;;;;4.43;1.70;;;;;;;23.41;49.40;100351.09;5014647;28;20055;-85
2023/10/03 13:00:24;;;;;;;3.65;1.52;;;;;;;23.40;49.52;100345.84;4992712;28;20486;-86
2023/10/03 13:02:52;;;;;;;8.27;2.10;;;;;;;23.41;50.02;100350.25;5014308;28;20041;-85
2023/10/03 13:05:21;;;;;;;4.32;1.83;;;;;;;23.37;49.96;100340.72;4995394;28;20408;-85
2023/10/03 13:07:49;;;;;;;5.72;2.38;;;;;;;23.40;49.84;100348.53;4997681;28;20044;-84
2023/10/03 13:10:21;;;;;;;3.05;2.08;;;;;;;23.39;50.14;100370.91;4989853;28;20038;-84
2023/10/03 13:12:49;;;;;;;2.97;1.63;;;;;;;23.26;50.84;100366.41;5005669;28;20042;-85
2023/10/03 13:15:17;;;;;;;3.03;1.85;;;;;;;23.13;50.75;100370.91;5014750;28;20041;-87
2023/10/03 13:17:50;;;;;;;5.80;2.17;;;;;;;23.20;51.13;100366.84;5017725;28;20049;-86
2023/10/03 13:20:23;;;;;;;5.40;2.13;;;;;;;23.35;51.03;100374.78;5013790;28;20103;-85
2023/10/03 13:22:51;;;;;;;2.90;1.60;;;;;;;23.42;50.75;100376.06;5008365;28;20041;-85
2023/10/03 13:25:21;;;;;;;4.13;2.00;;;;;;;23.83;50.18;100374.09;5012867;28;20049;-85
2023/10/03 13:27:50;;;;;;;4.05;2.25;;;;;;;23.47;50.65;100373.91;5014502;28;20052;-84
2023/10/03 13:30:18;;;;;;;5.30;1.80;;;;;;;23.35;50.68;100369.44;5010824;28;20037;-86
2023/10/03 13:32:49;;;;;;;5.10;2.13;;;;;;;23.19;51.29;100383.88;5011106;28;20045;-84
2023/10/03 13:35:20;;;;;;;3.78;1.67;;;;;;;23.41;51.60;100399.28;5001698;28;20045;-84
2023/10/03 13:37:49;;;;;;;5.07;1.63;;;;;;;23.13;51.91;100397.69;5010537;28;20046;-84
2023/10/03 13:40:19;;;;;;;3.40;1.50;;;;;;;23.08;52.86;100410.47;5007014;28;20037;-84
2023/10/03 13:42:49;;;;;;;2.20;1.30;;;;;;;23.02;53.90;100427.81;5015678;28;20052;-85
2023/10/03 13:45:16;;;;;;;3.55;1.42;;;;;;;22.71;55.01;100420.97;5005131;28;20045;-84
2023/10/03 13:47:48;;;;;;;3.75;1.50;;;;;;;22.65;55.99;100408.88;5013831;28;20115;-85
2023/10/03 13:50:17;;;;;;;3.58;1.50;;;;;;;22.48;55.49;100411.78;5012429;28;20049;-83
2023/10/03 13:52:46;;;;;;;6.53;1.80;;;;;;;23.04;54.69;100417.00;5014916;28;20132;-83
2023/10/03 13:55:15;;;;;;;4.55;1.40;;;;;;;23.22;54.07;100423.81;5012691;28;20055;-84
2023/10/03 13:57:44;;;;;;;3.00;1.52;;;;;;;23.18;54.16;100421.44;5017717;28;20048;-85
2023/10/03 14:00:15;;;;;;;4.85;1.80;;;;;;;23.80;53.44;100418.03;5011062;28;20394;-84
2023/10/03 14:02:45;;;;;;;3.58;1.73;;;;;;;23.51;53.65;100422.78;5001348;28;20172;-84
2023/10/03 14:05:13;;;;;;;7.70;1.75;;;;;;;23.28;54.69;100427.88;5007739;28;20037;-84
2023/10/03 14:07:40;;;;;;;4.03;1.40;;;;;;;23.13;55.19;100439.63;5016175;28;20123;-84
2023/10/03 14:10:09;;;;;;;3.25;1.77;;;;;;;23.28;54.91;100443.94;5001513;28;20097;-87
2023/10/03 14:12:36;;;;;;;2.95;1.48;;;;;;;23.17;55.98;100458.03;5001856;28;20056;-85
2023/10/03 14:15:07;;;;;;;2.92;1.80;;;;;;;22.60;58.03;100482.34;5005219;28;20048;-83
2023/10/03 14:17:33;;;;;;;3.95;1.50;;;;;;;22.67;58.56;100487.19;5018844;28;20111;-83
2023/10/03 14:20:00;;;;;;;7.47;2.08;;;;;;;22.32;60.71;100500.09;5016616;28;20092;-84
2023/10/03 14:22:27;;;;;;;4.03;1.85;;;;;;;21.97;61.04;100503.16;5017390;28;20057;-84
2023/10/03 14:24:54;;;;;;;4.65;1.55;;;;;;;21.76;63.56;100521.38;5006654;28;20081;-82
2023/10/03 14:27:21;;;;;;;4.97;1.48;;;;;;;20.35;71.69;100526.69;4993020;28;20052;-82
2023/10/03 14:29:48;;;;;;;3.03;1.30;;;;;;;20.17;72.30;100527.69;4987485;28;20038;-82
2023/10/03 14:32:15;;;;;;;1.77;0.73;;;;;;;20.06;72.35;100537.13;5005047;28;20053;-85
2023/10/03 14:34:41;;;;;;;2.00;0.60;;;;;;;19.75;72.55;100554.66;5023806;28;20045;-82
2023/10/03 14:37:09;;;;;;;1.92;0.60;;;;;;;19.85;72.19;100559.53;5007344;28;20114;-83
2023/10/03 14:39:36;;;;;;;1.77;0.50;;;;;;;19.76;73.97;100572.34;5016131;28;20092;-82
2023/10/03 14:42:03;;;;;;;1.35;0.40;;;;;;;19.26;75.04;100597.03;5023361;28;20045;-85
2023/10/03 14:44:30;;;;;;;1.10;0.50;;;;;;;19.23;75.56;100626.44;4994667;28;20092;-83
2023/10/03 14:46:57;;;;;;;1.95;0.30;;;;;;;19.13;72.00;100606.56;5018322;28;20042;-83
2023/10/03 14:49:24;;;;;;;0.73;0.32;;;;;;;19.09;71.22;100619.16;5011731;28;20045;-84
2023/10/03 14:51:52;;;;;;;1.42;0.35;;;;;;;18.80;70.88;100623.13;5019306;28;20453;-82
2023/10/03 14:54:19;;;;;;;1.23;0.32;;;;;;;18.47;72.16;100642.38;5014938;28;20041;-82
2023/10/03 14:56:50;;;;;;;1.05;0.32;;;;;;;18.58;73.34;100653.34;4994966;28;20491;-84
2023/10/03 14:59:19;;;;;;;1.40;0.40;;;;;;;18.41;74.18;100662.94;5008704;28;20102;-88
2023/10/03 15:01:49;;;;;;;0.60;0.30;;;;;;;18.43;74.15;100673.50;5019653;28;20045;-82
2023/10/03 15:04:17;;;;;;;0.52;0.25;;;;;;;18.63;73.54;100685.91;5000614;28;20037;-83
2023/10/03 15:06:44;;;;;;;0.60;0.28;;;;;;;18.82;74.94;100696.56;5003200;28;20296;-83
2023/10/03 15:09:11;;;;;;;1.35;0.30;;;;;;;19.18;72.38;100693.19;4995793;28;20336;-83
2023/10/03 15:11:38;;;;;;;0.35;0.15;;;;;;;19.38;71.74;100699.34;5014734;28;20524;-84
2023/10/03 15:14:06;;;;;;;0.35;0.22;;;;;;;19.04;70.38;100716.88;5004416;28;20041;-85
2023/10/03 15:16:32;;;;;;;0.50;0.30;;;;;;;19.13;71.06;100739.53;4996374;28;20073;-84
2023/10/03 15:19:02;;;;;;;0.65;0.30;;;;;;;18.97;72.11;100742.88;5012979;28;20390;-84
2023/10/03 15:21:30;;;;;;;0.45;0.20;;;;;;;18.84;72.01;100752.31;5013639;28;20080;-86
2023/10/03 15:23:57;;;;;;;0.73;0.30;;;;;;;18.74;72.37;100776.66;4996733;28;20072;-86
2023/10/03 15:26:25;;;;;;;0.20;0.10;;;;;;;18.39;72.12;100795.00;4996385;28;20056;-82
2023/10/03 15:28:52;;;;;;;1.80;0.68;;;;;;;18.38;73.07;100798.56;5018466;28;20121;-83
2023/10/03 15:31:23;;;;;;;0.40;0.30;;;;;;;18.04;71.92;100804.41;5002339;28;20400;-84
2023/10/03 15:33:54;;;;;;;1.05;0.40;;;;;;;18.06;69.94;100810.50;5020310;28;20049;-86
2023/10/03 15:36:21;;;;;;;0.80;0.40;;;;;;;17.85;68.63;100804.25;5013957;28;20060;-85
2023/10/03 15:38:48;;;;;;;0.95;0.40;;;;;;;18.10;67.68;100804.16;5013714;28;20049;-85
2023/10/03 15:41:15;;;;;;;2.67;0.52;;;;;;;18.22;67.57;100792.19;4991336;28;20053;-85
2023/10/03 15:43:45;;;;;;;2.47;0.57;;;;;;;18.56;67.01;100806.69;4998417;28;20046;-84
2023/10/03 15:46:12;;;;;;;2.63;0.60;;;;;;;18.95;68.41;100803.28;5005807;28;20099;-87
2023/10/03 15:48:39;;;;;;;1.35;1.00;;;;;;;18.54;64.62;100812.09;5021479;28;20041;-85
2023/10/03 15:51:13;;;;;;;1.52;0.40;;;;;;;18.41;65.74;100814.38;5021726;28;20095;-93
2023/10/03 15:53:41;;;;;;;1.17;0.40;;;;;;;17.98;67.17;100821.44;5019777;28;20130;-84
2023/10/03 15:56:13;;;;;;;1.35;0.60;;;;;;;18.41;67.13;100824.16;5004435;28;20052;-84
2023/10/03 15:58:44;;;;;;;0.85;0.60;;;;;;;18.18;65.85;100833.94;5022130;28;20053;-86
2023/10/03 16:01:14;;;;;;;1.63;0.60;;;;;;;18.00;64.23;100832.88;4998862;28;20045;-85
2023/10/03 16:03:46;;;;;;;1.02;0.70;;;;;;;18.07;66.10;100858.28;5010730;28;20084;-84
2023/10/03 16:06:13;;;;;;;1.83;0.80;;;;;;;18.15;66.03;100835.88;4997845;28;20042;-85
2023/10/03 16:08:43;;;;;;;1.67;0.70;;;;;;;18.16;64.16;100858.81;5014408;28;20128;-86
2023/10/03 16:11:12;;;;;;;0.93;0.60;;;;;;;18.00;65.26;100882.44;4999901;28;20048;-85
2023/10/03 16:13:39;;;;;;;1.95;0.60;;;;;;;17.80;65.41;100865.50;5021002;28;20047;-85
2023/10/03 16:16:06;;;;;;;2.35;0.95;;;;;;;17.71;66.28;100874.69;5020176;28;20045;-92
2023/10/03 16:18:33;;;;;;;2.13;0.50;;;;;;;17.45;66.46;100882.72;5011043;28;20093;-87
2023/10/03 16:21:01;;;;;;;1.90;0.50;;;;;;;17.59;65.72;100880.44;5013040;28;20053;-86
2023/10/03 16:23:28;;;;;;;0.85;0.52;;;;;;;17.34;66.24;100886.63;5014346;28;21155;-87
2023/10/03 16:25:54;;;;;;;2.05;0.70;;;;;;;17.28;66.82;100889.53;5010591;28;20073;-85
2023/10/03 16:28:21;;;;;;;1.80;0.77;;;;;;;17.20;66.26;100902.19;5004458;28;20048;-86
2023/10/03 16:30:48;;;;;;;3.33;0.60;;;;;;;17.04;66.34;100909.81;5014546;28;20048;-84
2023/10/03 16:33:15;;;;;;;1.65;0.60;;;;;;;17.00;66.38;100908.16;5006139;28;20046;-85
2023/10/03 16:35:43;;;;;;;3.53;0.82;;;;;;;16.96;67.88;100922.44;5015071;28;20067;-84
2023/10/03 16:38:12;;;;;;;1.55;0.73;;;;;;;16.76;66.73;100921.31;5015462;28;20052;-85
2023/10/03 16:40:39;;;;;;;1.42;0.80;;;;;;;16.83;66.89;100937.88;5014822;28;20050;-86
2023/10/03 16:43:11;;;;;;;2.08;0.80;;;;;;;16.61;66.78;100945.66;5008210;28;20049;-86
2023/10/03 16:45:38;;;;;;;1.90;0.60;;;;;;;16.52;68.17;100962.72;5014237;28;20064;-87
2023/10/03 16:48:08;;;;;;;1.05;0.75;;;;;;;16.59;67.63;100969.53;5019265;28;20047;-85
2023/10/03 16:50:38;;;;;;;2.40;0.90;;;;;;;16.54;66.84;100987.38;5000757;28;20042;-84
2023/10/03 16:53:05;;;;;;;2.90;0.85;;;;;;;16.38;67.30;101002.00;4985857;28;20101;-84
2023/10/03 16:55:32;;;;;;;1.80;0.90;;;;;;;16.51;67.62;101008.66;5007874;28;20067;-85
2023/10/03 16:57:59;;;;;;;2.33;0.80;;;;;;;16.30;68.43;101023.44;5020418;28;20037;-85
2023/10/03 17:00:30;;;;;;;2.05;0.60;;;;;;;16.17;68.22;101039.66;5009259;28;20058;-85
2023/10/03 17:02:57;;;;;;;1.67;0.80;;;;;;;16.17;68.10;101052.91;5013172;28;20056;-85
2023/10/03 17:05:24;;;;;;;2.28;0.80;;;;;;;16.24;67.45;101053.59;5003694;28;20048;-85
2023/10/03 17:07:51;;;;;;;1.83;0.80;;;;;;;16.16;67.92;101068.81;5012273;28;20061;-85
2023/10/03 17:10:20;;;;;;;1.33;0.77;;;;;;;16.09;68.30;101081.38;5001201;28;20049;-84
2023/10/03 17:12:47;;;;;;;3.25;0.70;;;;;;;16.12;68.88;101085.72;5006378;28;20049;-85
2023/10/03 17:15:15;;;;;;;2.25;0.88;;;;;;;15.97;68.40;101089.66;4994901;28;20128;-84
2023/10/03 17:17:43;;;;;;;1.63;0.73;;;;;;;15.99;69.61;101095.78;5013073;28;20126;-84
2023/10/03 17:20:11;;;;;;;3.50;1.00;;;;;;;15.90;68.93;101094.25;5015563;28;20049;-85
2023/10/03 17:22:40;;;;;;;2.38;0.73;;;;;;;15.78;69.27;101106.03;5001075;28;20057;-84
2023/10/03 17:25:07;;;;;;;1.73;0.70;;;;;;;15.75;69.41;101113.16;4998421;28;20045;-91
2023/10/03 17:27:39;;;;;;;1.10;0.57;;;;;;;15.71;69.29;101119.41;5010219;28;20136;-85
2023/10/03 17:30:07;;;;;;;1.83;0.60;;;;;;;15.63;69.46;101116.97;5010548;28;20494;-90
2023/10/03 17:32:34;;;;;;;1.83;0.70;;;;;;;15.75;69.45;101131.66;5016374;28;20050;-84
2023/10/03 17:35:05;;;;;;;1.50;0.73;;;;;;;15.85;68.98;101143.78;5013056;28;20042;-84
2023/10/03 17:37:32;;;;;;;1.38;0.60;;;;;;;15.68;70.37;101160.06;5002734;28;20056;-84
2023/10/03 17:39:59;;;;;;;1.88;0.98;;;;;;;15.93;69.52;101159.47;5005143;28;20042;-84
2023/10/03 17:42:29;;;;;;;1.25;0.70;;;;;;;15.61;69.68;101164.66;5016868;28;20081;-83
2023/10/03 17:44:56;;;;;;;1.00;0.65;;;;;;;15.56;71.35;101170.94;5014064;28;20149;-84
2023/10/03 17:47:28;;;;;;;3.00;0.60;;;;;;;15.55;70.85;101167.41;5017300;28;20048;-84
2023/10/03 17:49:56;;;;;;;1.15;0.70;;;;;;;15.50;70.74;101179.00;5008535;28;20050;-84
2023/10/03 17:52:22;;;;;;;1.92;0.73;;;;;;;15.17;69.91;101171.84;5007900;28;20052;-85
2023/10/03 17:54:49;;;;;;;1.75;0.90;;;;;;;15.50;69.80;101179.91;5021987;28;20048;-83
2023/10/03 17:57:16;;;;;;;1.25;0.80;;;;;;;15.49;70.45;101183.44;4995245;28;20045;-84
2023/10/03 17:59:43;;;;;;;1.48;0.73;;;;;;;15.17;71.98;101193.00;5022598;28;20103;-84
2023/10/03 18:02:30;;;;;;;2.53;0.80;;;;;;;15.39;70.46;101197.78;5017998;28;20045;-84
2023/10/03 18:04:57;;;;;;;1.05;0.60;;;;;;;15.33;71.34;101209.38;5020570;28;20101;-86
2023/10/03 18:07:23;;;;;;;1.77;0.80;;;;;;;15.26;70.99;101213.06;5013327;28;20064;-84
2023/10/03 18:09:50;;;;;;;1.60;0.68;;;;;;;15.24;71.40;101206.94;5016736;28;20049;-83
2023/10/03 18:12:17;;;;;;;2.20;0.77;;;;;;;14.85;72.08;101220.97;4981959;28;20046;-85
2023/10/03 18:14:45;;;;;;;2.90;1.05;;;;;;;14.74;71.62;101228.25;5014971;28;20132;-84
2023/10/03 18:17:12;;;;;;;1.30;0.73;;;;;;;15.18;71.47;101239.69;5015731;28;20076;-84
2023/10/03 18:19:39;;;;;;;5.40;0.95;;;;;;;14.69;71.84;101236.25;5022067;28;20059;-84
2023/10/03 18:22:07;;;;;;;3.28;0.80;;;;;;;14.93;72.28;101240.19;5020934;28;20055;-85
2023/10/03 18:24:36;;;;;;;1.90;0.80;;;;;;;14.87;71.92;101242.94;5020822;28;20041;-85
2023/10/03 18:27:04;;;;;;;3.60;1.05;;;;;;;14.71;71.95;101249.44;5007529;28;20053;-85
2023/10/03 18:29:31;;;;;;;2.30;0.75;;;;;;;14.66;72.41;101260.09;5000594;28;20049;-84
2023/10/03 18:31:57;;;;;;;3.47;1.50;;;;;;;14.55;73.43;101254.97;5007782;28;20053;-81
2023/10/03 18:34:24;;;;;;;1.63;0.80;;;;;;;14.60;73.12;101258.41;4962083;28;20123;-81
2023/10/03 18:36:51;;;;;;;1.45;0.73;;;;;;;14.39;72.84;101279.91;4988864;28;20105;-81
2023/10/03 18:39:22;;;;;;;2.45;0.85;;;;;;;14.50;72.59;101272.69;4995217;28;20041;-81
2023/10/03 18:41:52;;;;;;;6.43;2.45;;;;;;;14.42;72.83;101274.59;4984569;28;20071;-82
2023/10/03 18:44:19;;;;;;;1.15;0.40;;;;;;;14.26;72.97;101285.44;4986600;28;20037;-85
2023/10/03 18:46:46;;;;;;;2.95;0.90;;;;;;;14.21;73.27;101292.53;5016336;28;20064;-84
2023/10/03 18:49:12;;;;;;;2.75;0.77;;;;;;;14.30;72.92;101298.56;5014752;28;20042;-82
2023/10/03 18:51:39;;;;;;;2.22;0.75;;;;;;;14.29;73.01;101310.88;5018882;28;20058;-82
2023/10/03 18:54:06;;;;;;;1.88;0.80;;;;;;;14.50;73.94;101312.31;5012960;28;20044;-86
2023/10/03 18:56:34;;;;;;;1.42;0.70;;;;;;;14.48;73.42;101322.00;4999225;28;20054;-82
2023/10/03 18:59:02;;;;;;;1.60;0.75;;;;;;;14.37;73.51;101323.97;5020073;28;20045;-81
2023/10/03 19:01:29;;;;;;;1.98;1.00;;;;;;;14.33;73.14;101336.34;5011304;28;20061;-82
2023/10/03 19:04:14;;;;;;;2.20;0.88;;;;;;;14.40;73.23;101345.91;5015639;28;20103;-83
2023/10/03 19:06:41;;;;;;;1.52;0.80;;;;;;;14.44;72.94;101357.31;5002650;28;20092;-83
2023/10/03 19:09:12;;;;;;;2.08;0.80;;;;;;;14.25;73.05;101370.81;5010821;28;20469;-84
2023/10/03 19:11:39;;;;;;;1.75;0.82;;;;;;;14.24;73.36;101384.88;5003312;28;20111;-81
2023/10/03 19:14:06;;;;;;;1.40;0.60;;;;;;;14.01;73.74;101389.66;5016478;28;20056;-89
2023/10/03 19:16:34;;;;;;;1.83;0.70;;;;;;;14.05;74.21;101389.56;5018359;28;20050;-85
2023/10/03 19:19:00;;;;;;;3.70;0.60;;;;;;;13.98;73.92;101392.31;5021245;28;20038;-83
2023/10/03 19:21:28;;;;;;;1.70;0.63;;;;;;;13.97;73.67;101395.84;4999719;28;20057;-83
2023/10/03 19:23:56;;;;;;;1.73;0.90;;;;;;;14.05;73.42;101401.91;5004708;28;20049;-84
2023/10/03 19:26:24;;;;;;;2.40;0.90;;;;;;;14.10;73.19;101405.34;5013827;28;20103;-82
2023/10/03 19:28:51;;;;;;;3.67;0.63;;;;;;;14.10;73.08;101410.63;5017628;28;20109;-82
2023/10/03 19:31:19;;;;;;;2.88;0.90;;;;;;;13.93;74.07;101410.84;4979146;28;20420;-88
2023/10/03 19:33:46;;;;;;;1.80;0.70;;;;;;;13.96;73.61;101418.75;5015259;28;20053;-83
2023/10/03 19:36:13;;;;;;;6.13;1.23;;;;;;;13.96;73.78;101423.13;4995637;28;20101;-83
2023/10/03 19:38:42;;;;;;;2.05;0.90;;;;;;;13.94;73.70;101436.34;4992302;28;20111;-84
2023/10/03 19:41:12;;;;;;;2.13;0.90;;;;;;;13.81;74.27;101437.41;4993599;28;20144;-83
2023/10/03 19:43:40;;;;;;;1.60;0.80;;;;;;;13.96;73.72;101441.59;5000195;28;20160;-87
2023/10/03 19:46:10;;;;;;;1.48;0.90;;;;;;;13.85;73.93;101450.53;5002254;28;20048;-88
2023/10/03 19:48:37;;;;;;;2.42;0.90;;;;;;;13.83;74.49;101449.69;5006478;28;20042;-86
2023/10/03 19:51:05;;;;;;;3.10;0.95;;;;;;;13.73;74.21;101454.19;5018599;28;20108;-83
2023/10/03 19:53:33;;;;;;;2.13;0.77;;;;;;;13.92;73.81;101453.97;4980216;28;20053;-84
2023/10/03 19:56:05;;;;;;;3.60;0.82;;;;;;;13.80;73.79;101455.00;5009630;28;20042;-83
2023/10/03 19:58:34;;;;;;;1.40;0.80;;;;;;;13.85;73.87;101460.22;5015383;28;20099;-82
2023/10/03 20:01:02;;;;;;;3.88;0.73;;;;;;;13.76;74.04;101457.66;5019531;28;20323;-84
2023/10/03 20:03:30;;;;;;;3.42;0.90;;;;;;;13.70;74.35;101459.50;5015587;28;20145;-82
2023/10/03 20:05:57;;;;;;;1.33;0.80;;;;;;;13.61;74.92;101459.59;5023709;28;20124;-82
2023/10/03 20:08:24;;;;;;;1.02;0.50;;;;;;;13.50;75.10;101465.00;5016378;28;20079;-82
2023/10/03 20:10:55;;;;;;;2.50;0.85;;;;;;;13.54;74.98;101463.19;5004069;28;20042;-85
2023/10/03 20:13:23;;;;;;;2.85;0.88;;;;;;;13.57;74.84;101465.81;4992219;28;20052;-84
2023/10/03 20:15:50;;;;;;;2.30;0.90;;;;;;;13.48;75.04;101464.13;5011824;28;20052;-82